Time;durP1;ratioP1;P1;durP2;ratioP2;P2;SDS_P1;SDS_P2;PMS_P1;PMS_P2;Temp;Humidity;BMP_temperature;BMP_pressure;BME280_temperature;BME280_humidity;BME280_pressure;Samples;Min_cycle;Max_cycle;Signal;HPM_P1;HPM_P2
2023/01/11 00:02:05;;;;;;;16.63;2.08;;;10.10;99.90;;;;;;5097307;28;20056;-72
2023/01/11 00:04:33;;;;;;;12.30;1.80;;;10.30;99.90;;;;;;5098207;28;20043;-73
2023/01/11 00:07:01;;;;;;;16.23;1.73;;;10.10;99.90;;;;;;5101072;28;20048;-73
2023/01/11 00:09:28;;;;;;;16.48;2.15;;;10.10;99.90;;;;;;5118804;28;20039;-73
2023/01/11 00:11:55;;;;;;;13.13;1.67;;;10.10;99.90;;;;;;5117671;28;20044;-73
2023/01/11 00:14:23;;;;;;;16.40;1.67;;;10.10;99.90;;;;;;5118972;28;20341;-73
2023/01/11 00:16:51;;;;;;;12.48;1.70;;;10.10;99.90;;;;;;5119289;28;20538;-73
2023/01/11 00:19:18;;;;;;;13.32;1.80;;;10.10;99.90;;;;;;5117595;28;20047;-73
2023/01/11 00:21:48;;;;;;;21.52;2.38;;;10.10;99.90;;;;;;5118816;28;20048;-73
2023/01/11 00:24:15;;;;;;;14.93;1.90;;;10.10;99.90;;;;;;5099501;28;20056;-72
2023/01/11 00:26:43;;;;;;;15.23;1.65;;;10.30;99.90;;;;;;5100725;28;20039;-73
2023/01/11 00:29:10;;;;;;;15.43;2.20;;;10.00;99.90;;;;;;5118561;28;20055;-73
2023/01/11 00:31:38;;;;;;;21.85;2.30;;;10.00;99.90;;;;;;5117395;28;20047;-73
2023/01/11 00:34:05;;;;;;;15.05;2.08;;;10.10;99.90;;;;;;5118421;28;20040;-73
2023/01/11 00:36:33;;;;;;;17.65;2.20;;;10.00;99.90;;;;;;5101076;28;20046;-73
2023/01/11 00:39:01;;;;;;;15.85;1.98;;;10.00;99.90;;;;;;5117254;28;20043;-73
2023/01/11 00:49:46;;;;;;;21.33;2.00;;;10.00;99.90;;;;;;5118326;28;20055;-73
2023/01/11 00:52:14;;;;;;;15.55;2.00;;;10.00;99.90;;;;;;5099185;28;20044;-73
2023/01/11 00:54:41;;;;;;;18.80;2.45;;;10.00;99.90;;;;;;5100022;28;20476;-72
2023/01/11 00:57:09;;;;;;;15.60;2.13;;;10.10;99.90;;;;;;5116739;28;20063;-73
2023/01/11 00:59:40;;;;;;;16.42;2.13;;;9.90;99.90;;;;;;5117883;28;20040;-73
2023/01/11 01:02:09;;;;;;;19.73;1.88;;;9.80;99.90;;;;;;5118333;28;20062;-73
2023/01/11 01:04:38;;;;;;;14.77;1.85;;;9.70;99.90;;;;;;5099100;28;20056;-73
2023/01/11 01:07:07;;;;;;;18.33;2.22;;;9.70;99.90;;;;;;5117596;28;20044;-73
2023/01/11 01:09:34;;;;;;;11.52;1.90;;;9.60;99.90;;;;;;5117560;28;20044;-73
2023/01/11 01:12:02;;;;;;;22.88;1.92;;;10.20;99.90;;;;;;5116512;28;20062;-73
2023/01/11 01:14:32;;;;;;;15.25;2.17;;;9.50;99.90;;;;;;5099561;28;20035;-72
2023/01/11 01:17:02;;;;;;;13.80;1.88;;;9.50;99.90;;;;;;5100220;28;20066;-73
2023/01/11 01:19:30;;;;;;;23.60;2.35;;;9.50;99.90;;;;;;5116575;28;20364;-73
2023/01/11 01:21:58;;;;;;;21.50;2.88;;;9.50;99.90;;;;;;5117689;28;20044;-73
2023/01/11 01:24:27;;;;;;;16.05;2.30;;;9.40;99.90;;;;;;5081739;28;20051;-73
2023/01/11 01:26:56;;;;;;;20.83;2.90;;;9.90;99.90;;;;;;5083411;28;20376;-73
2023/01/11 01:29:24;;;;;;;23.20;2.80;;;9.40;99.90;;;;;;5117888;28;20062;-73
2023/01/11 01:31:52;;;;;;;22.00;2.58;;;9.30;99.90;;;;;;5098416;28;20047;-73
2023/01/11 01:34:19;;;;;;;23.00;2.38;;;9.50;99.90;;;;;;5099337;28;20035;-73
2023/01/11 01:36:47;;;;;;;24.35;2.83;;;9.30;99.90;;;;;;5099240;28;20062;-73
2023/01/11 01:39:14;;;;;;;12.65;1.75;;;9.30;99.90;;;;;;5116051;28;20048;-73
2023/01/11 01:41:42;;;;;;;21.15;2.35;;;9.20;99.90;;;;;;5117189;28;20039;-73
2023/01/11 01:44:47;;;;;;;30.17;3.10;;;9.20;99.90;;;;;;5098281;28;20047;-73
2023/01/11 01:47:15;;;;;;;21.17;2.80;;;9.10;99.90;;;;;;5116903;28;20387;-73
2023/01/11 01:49:43;;;;;;;;;;;9.10;99.90;;;;;;5117362;28;20039;-73
2023/01/11 01:52:12;;;;;;;17.95;2.60;;;9.10;99.90;;;;;;5116012;28;19931;-72
2023/01/11 01:54:41;;;;;;;;;;;9.10;99.90;;;;;;5117228;28;20040;-73
2023/01/11 01:57:14;;;;;;;24.25;2.28;;;9.10;99.90;;;;;;5115897;28;19931;-73
2023/01/11 01:59:42;;;;;;;24.20;2.75;;;9.30;99.90;;;;;;5116662;28;20044;-73
2023/01/11 02:02:10;;;;;;;23.20;2.72;;;9.10;99.90;;;;;;5098865;28;20039;-73
2023/01/11 02:04:41;;;;;;;21.48;2.40;;;9.00;99.90;;;;;;5115481;28;20059;-73
2023/01/11 02:07:17;;;;;;;24.30;2.88;;;9.00;99.90;;;;;;5116322;28;20055;-73
2023/01/11 02:10:00;;;;;;;26.58;2.90;;;9.00;99.90;;;;;;5082283;28;20047;-73
2023/01/11 02:12:31;;;;;;;24.05;2.65;;;8.90;99.90;;;;;;5080797;28;20338;-73
2023/01/11 02:15:01;;;;;;;26.25;3.25;;;8.90;99.90;;;;;;5116719;28;20059;-73
2023/01/11 02:17:29;;;;;;;25.20;2.67;;;8.90;99.90;;;;;;5115617;28;20048;-73
2023/01/11 02:20:20;;;;;;;19.25;2.35;;;8.80;99.90;;;;;;5116292;28;20040;-73
2023/01/11 02:23:07;;;;;;;26.60;2.80;;;8.80;99.90;;;;;;5103609;28;20483;-73
2023/01/11 02:25:37;;;;;;;29.50;3.08;;;8.70;99.90;;;;;;5115216;28;20043;-73
2023/01/11 02:28:15;;;;;;;24.77;3.20;;;8.70;99.90;;;;;;5097869;28;20049;-73
2023/01/11 02:30:54;;;;;;;;;;;8.60;99.90;;;;;;5115664;28;20467;-73
2023/01/11 02:33:35;;;;;;;29.55;2.90;;;8.60;99.90;;;;;;5116485;28;20245;-72
2023/01/11 02:36:20;;;;;;;32.90;3.65;;;8.60;99.90;;;;;;5098393;28;20051;-73
2023/01/11 02:39:09;;;;;;;31.40;3.17;;;8.60;99.90;;;;;;5097142;28;20070;-73
2023/01/11 02:45:00;;;;;;;24.90;3.17;;;8.60;99.90;;;;;;5097296;28;20043;-73
2023/01/11 02:47:38;;;;;;;28.67;3.22;;;8.60;99.90;;;;;;5115615;28;20052;-73
2023/01/11 02:50:17;;;;;;;25.45;2.75;;;8.60;99.90;;;;;;5115757;28;20471;-73
2023/01/11 02:52:52;;;;;;;28.58;3.05;;;8.50;99.90;;;;;;5096852;28;20062;-73
2023/01/11 02:55:24;;;;;;;26.23;2.90;;;8.50;99.90;;;;;;5115670;28;20035;-73
2023/01/11 02:57:55;;;;;;;25.70;2.92;;;8.50;99.90;;;;;;5114517;28;20035;-73
2023/01/11 03:00:23;;;;;;;26.77;3.35;;;8.40;99.90;;;;;;5097865;28;20052;-73
2023/01/11 03:03:12;;;;;;;23.65;2.78;;;8.60;99.90;;;;;;5115877;28;20054;-73
2023/01/11 03:05:49;;;;;;;26.73;3.10;;;8.40;99.90;;;;;;5079964;28;20044;-73
2023/01/11 03:08:22;;;;;;;23.08;2.78;;;8.40;99.90;;;;;;5114636;28;20388;-73
2023/01/11 03:12:50;;;;;;;25.15;2.92;;;8.40;99.90;;;;;;5096246;28;20048;-73
2023/01/11 03:14:31;;;;;;;26.33;2.92;;;8.40;99.90;;;;;;5114651;28;20110;-73
2023/01/11 03:17:27;;;;;;;32.42;2.85;;;8.40;99.90;;;;;;5097287;28;20058;-73
2023/01/11 03:20:10;;;;;;;24.27;2.63;;;8.40;99.90;;;;;;5114619;28;20059;-73
2023/01/11 03:23:01;;;;;;;21.35;2.67;;;8.40;99.90;;;;;;5114772;28;20464;-73
2023/01/11 03:26:03;;;;;;;28.17;2.97;;;8.40;99.90;;;;;;5095654;28;20371;-73
2023/01/11 03:28:50;;;;;;;34.58;3.50;;;8.40;99.90;;;;;;5114578;28;20035;-73
2023/01/11 03:31:42;;;;;;;25.40;3.22;;;8.40;99.90;;;;;;5113185;28;20056;-73
2023/01/11 03:34:57;;;;;;;26.75;2.97;;;8.40;99.90;;;;;;5114907;28;20333;-73
2023/01/11 03:37:28;;;;;;;29.05;3.17;;;8.40;99.90;;;;;;5011075;28;20042;-73
2023/01/11 03:40:07;;;;;;;31.33;3.42;;;8.40;99.90;;;;;;5105309;28;20036;-73
2023/01/11 03:43:09;;;;;;;28.60;3.33;;;8.30;99.90;;;;;;5079989;28;20379;-73
2023/01/11 03:45:31;;;;;;;31.98;3.53;;;8.30;99.90;;;;;;5112965;28;20051;-73
2023/01/11 03:48:01;;;;;;;28.40;3.45;;;8.20;99.90;;;;;;5114469;28;20118;-73
2023/01/11 03:50:31;;;;;;;22.73;3.08;;;8.10;99.90;;;;;;5113045;28;20050;-73
2023/01/11 03:53:02;;;;;;;35.92;3.80;;;8.10;99.90;;;;;;5114108;28;20036;-73
2023/01/11 03:55:33;;;;;;;22.85;3.33;;;8.10;99.90;;;;;;5114044;28;20044;-73
2023/01/11 03:58:01;;;;;;;30.05;3.38;;;8.00;99.90;;;;;;5113151;28;20058;-73
2023/01/11 04:00:30;;;;;;;23.48;2.90;;;8.00;99.90;;;;;;5113860;28;20040;-73
2023/01/11 04:02:59;;;;;;;30.10;3.22;;;7.90;99.90;;;;;;5113960;28;20118;-73
2023/01/11 04:05:27;;;;;;;31.17;3.60;;;7.90;99.90;;;;;;5112856;28;20483;-73
2023/01/11 04:07:55;;;;;;;32.22;3.60;;;8.00;99.90;;;;;;5053506;28;1223650;-73
2023/01/11 04:10:22;;;;;;;20.40;2.70;;;8.20;99.90;;;;;;5114901;28;20364;-73
2023/01/11 04:12:49;;;;;;;33.90;3.10;;;7.90;99.90;;;;;;5096057;28;20364;-73
2023/01/11 04:15:17;;;;;;;30.33;3.67;;;7.90;99.90;;;;;;5114747;28;20044;-73
2023/01/11 04:17:44;;;;;;;35.65;4.03;;;7.80;99.90;;;;;;5113995;28;20046;-73
2023/01/11 04:20:12;;;;;;;32.40;3.80;;;7.70;99.90;;;;;;5097153;28;20044;-73
2023/01/11 04:22:39;;;;;;;31.73;2.90;;;7.70;99.90;;;;;;5096963;28;20118;-73
2023/01/11 04:25:08;;;;;;;24.27;3.33;;;7.70;99.90;;;;;;5079127;28;20039;-73
2023/01/11 04:27:36;;;;;;;27.48;3.55;;;7.70;99.90;;;;;;5114765;28;20055;-73
2023/01/11 04:30:04;;;;;;;24.38;3.28;;;7.70;99.90;;;;;;5114543;28;20040;-73
2023/01/11 04:32:31;;;;;;;28.05;3.55;;;7.60;99.90;;;;;;5113408;28;20043;-73
2023/01/11 04:34:59;;;;;;;35.25;3.47;;;7.60;99.90;;;;;;5114595;28;20364;-73
2023/01/11 04:37:26;;;;;;;32.03;4.07;;;7.60;99.90;;;;;;5079146;28;20391;-73
2023/01/11 04:39:54;;;;;;;23.15;3.15;;;7.60;99.90;;;;;;5114591;28;20040;-73
2023/01/11 04:42:23;;;;;;;30.70;3.72;;;7.60;99.90;;;;;;5114690;28;20055;-73
2023/01/11 04:44:51;;;;;;;33.83;3.00;;;7.50;99.90;;;;;;5113538;28;20054;-73
2023/01/11 04:47:21;;;;;;;26.52;3.42;;;7.50;99.90;;;;;;5114951;28;20044;-73
2023/01/11 04:49:49;;;;;;;27.42;3.60;;;7.50;99.90;;;;;;5115100;28;20368;-73
2023/01/11 04:52:18;;;;;;;33.70;3.50;;;9.00;99.90;;;;;;5099358;28;20031;-73
2023/01/11 04:54:47;;;;;;;30.67;3.72;;;7.50;99.90;;;;;;5118588;28;20047;-73
2023/01/11 04:57:16;;;;;;;27.17;3.10;;;7.50;99.90;;;;;;5082696;28;20070;-73
2023/01/11 04:59:46;;;;;;;31.50;3.60;;;7.50;99.90;;;;;;5100218;28;20066;-73
2023/01/11 05:02:15;;;;;;;38.63;3.85;;;7.50;99.90;;;;;;5118259;28;20072;-73
2023/01/11 05:04:43;;;;;;;38.20;3.55;;;7.50;99.90;;;;;;5099041;28;20055;-73
2023/01/11 05:07:10;;;;;;;26.40;3.38;;;7.50;99.90;;;;;;5117707;28;20456;-73
2023/01/11 05:09:39;;;;;;;39.97;4.28;;;7.50;99.90;;;;;;5117884;28;20048;-73
2023/01/11 05:12:07;;;;;;;30.50;3.33;;;7.50;99.90;;;;;;5081952;28;20039;-73
2023/01/11 05:14:34;;;;;;;29.60;3.80;;;7.40;99.90;;;;;;5100288;28;20379;-73
2023/01/11 05:17:02;;;;;;;33.67;3.95;;;7.40;99.90;;;;;;5117811;28;20044;-73
2023/01/11 05:19:29;;;;;;;32.25;3.83;;;7.40;99.90;;;;;;5098871;28;20051;-73
2023/01/11 05:21:57;;;;;;;34.50;3.70;;;7.40;99.90;;;;;;5099757;28;20070;-73
2023/01/11 05:24:24;;;;;;;31.10;3.70;;;7.40;99.90;;;;;;5116662;28;20062;-73
2023/01/11 05:26:52;;;;;;;34.50;3.42;;;7.30;99.90;;;;;;5083052;28;20047;-73
2023/01/11 05:29:20;;;;;;;36.28;4.18;;;7.30;99.90;;;;;;5099481;28;20051;-73
2023/01/11 05:31:48;;;;;;;42.92;3.60;;;7.30;99.90;;;;;;5098513;28;20043;-73
2023/01/11 05:34:17;;;;;;;27.85;3.20;;;7.30;99.90;;;;;;5117125;28;20044;-73
2023/01/11 05:36:45;;;;;;;32.95;3.92;;;7.30;99.90;;;;;;5117865;28;20043;-73
2023/01/11 05:39:13;;;;;;;30.10;3.47;;;7.20;99.90;;;;;;5116228;28;20380;-73
2023/01/11 05:41:40;;;;;;;;;;;7.20;99.90;;;;;;5117680;28;20050;-73
2023/01/11 05:46:56;;;;;;;40.13;4.65;;;7.30;99.90;;;;;;5099754;28;20047;-73
2023/01/11 05:49:24;;;;;;;37.97;4.22;;;7.20;99.90;;;;;;5099272;28;20364;-73
2023/01/11 05:51:52;;;;;;;32.78;4.25;;;7.20;99.90;;;;;;5115897;28;20042;-73
2023/01/11 05:54:19;;;;;;;36.90;4.18;;;7.20;99.90;;;;;;5082495;28;20052;-73
2023/01/11 05:56:47;;;;;;;46.05;4.15;;;7.10;99.90;;;;;;5099202;28;20040;-72
2023/01/11 05:59:14;;;;;;;34.00;4.15;;;7.20;99.90;;;;;;5115530;28;20058;-73
2023/01/11 06:01:42;;;;;;;28.27;3.92;;;7.20;99.90;;;;;;5115779;28;20046;-73
2023/01/11 06:04:09;;;;;;;28.85;3.42;;;7.20;99.90;;;;;;5115707;28;20039;-73
2023/01/11 06:06:37;;;;;;;31.95;3.65;;;7.20;99.90;;;;;;5116982;28;20380;-73
2023/01/11 06:09:05;;;;;;;27.92;4.05;;;7.20;99.90;;;;;;5082159;28;20055;-73
2023/01/11 06:11:32;;;;;;;36.63;4.43;;;7.20;99.90;;;;;;5097711;28;20051;-73
2023/01/11 06:14:00;;;;;;;35.28;4.00;;;7.20;99.90;;;;;;5116507;28;20353;-72
2023/01/11 06:16:27;;;;;;;41.10;4.55;;;7.20;99.90;;;;;;5116471;28;20051;-72
2023/01/11 06:18:55;;;;;;;43.60;4.47;;;7.20;99.90;;;;;;5115348;28;20055;-73
2023/01/11 06:21:23;;;;;;;35.40;4.53;;;7.20;99.90;;;;;;5098912;28;20044;-73
2023/01/11 06:23:51;;;;;;;30.88;4.15;;;7.20;99.90;;;;;;5115049;28;20049;-73
2023/01/11 06:26:20;;;;;;;36.22;4.28;;;7.20;99.90;;;;;;5081499;28;20040;-73
2023/01/11 06:28:49;;;;;;;32.10;3.92;;;7.20;99.90;;;;;;5116843;28;20452;-73
2023/01/11 06:31:16;;;;;;;34.83;3.80;;;7.20;99.90;;;;;;5097080;28;20047;-73
2023/01/11 06:33:45;;;;;;;39.35;4.70;;;7.10;99.90;;;;;;5098274;28;20074;-73
2023/01/11 06:36:14;;;;;;;28.38;3.85;;;7.10;99.90;;;;;;5098392;28;20048;-73
2023/01/11 06:38:42;;;;;;;33.55;3.90;;;7.10;99.90;;;;;;5097007;28;20522;-73
2023/01/11 06:41:11;;;;;;;32.92;3.35;;;7.20;99.90;;;;;;5116579;28;20475;-73
2023/01/11 06:43:40;;;;;;;37.15;3.83;;;7.20;99.90;;;;;;5098532;28;20048;-73
2023/01/11 06:46:10;;;;;;;26.30;3.35;;;7.20;99.90;;;;;;5114532;28;20056;-73
2023/01/11 06:48:39;;;;;;;27.40;3.65;;;7.20;99.90;;;;;;5098341;28;20353;-73
2023/01/11 06:51:09;;;;;;;26.58;3.88;;;7.70;99.90;;;;;;5114088;28;20036;-73
2023/01/11 06:53:38;;;;;;;23.95;3.08;;;7.30;99.90;;;;;;5097394;28;20047;-73
2023/01/11 06:56:06;;;;;;;39.13;4.00;;;7.30;99.90;;;;;;5115629;28;20144;-73
2023/01/11 06:58:33;;;;;;;;;;;7.30;99.90;;;;;;5115389;28;20050;-73
2023/01/11 07:01:00;;;;;;;31.75;3.70;;;7.20;99.90;;;;;;5115668;28;19927;-73
2023/01/11 07:03:28;;;;;;;29.67;3.35;;;7.20;99.90;;;;;;5115621;28;20054;-73
2023/01/11 07:05:57;;;;;;;30.85;3.55;;;7.90;99.90;;;;;;5096695;28;20056;-72
2023/01/11 07:08:25;;;;;;;26.92;3.22;;;7.30;99.90;;;;;;5097506;28;20058;-73
2023/01/11 07:10:53;;;;;;;31.63;3.70;;;7.30;99.90;;;;;;5096747;28;20047;-73
2023/01/11 07:13:21;;;;;;;34.15;3.83;;;7.20;99.90;;;;;;5113168;28;20062;-73
2023/01/11 07:15:51;;;;;;;29.20;3.53;;;7.30;99.90;;;;;;5103051;28;20039;-73
2023/01/11 07:18:19;;;;;;;30.40;3.78;;;7.20;99.90;;;;;;5093980;28;20040;-73
2023/01/11 07:20:46;;;;;;;31.90;3.90;;;7.20;99.90;;;;;;5094777;28;20052;-73
2023/01/11 07:23:14;;;;;;;30.80;4.20;;;7.10;99.90;;;;;;5095015;28;20040;-73
2023/01/11 07:25:41;;;;;;;28.38;3.72;;;7.10;99.90;;;;;;5093795;28;20122;-73
2023/01/11 07:28:09;;;;;;;28.85;3.65;;;7.10;99.90;;;;;;5095083;28;20044;-73
2023/01/11 07:30:39;;;;;;;29.90;3.50;;;7.00;99.90;;;;;;5093787;28;20052;-73
2023/01/11 07:33:24;;;;;;;32.65;3.50;;;7.00;99.90;;;;;;5063011;28;20040;-73
2023/01/11 07:35:51;;;;;;;26.45;3.45;;;7.00;99.90;;;;;;5094962;28;20353;-73
2023/01/11 07:38:19;;;;;;;32.30;3.70;;;7.00;99.90;;;;;;5076327;28;20465;-73
2023/01/11 07:40:46;;;;;;;36.15;3.92;;;6.90;99.90;;;;;;5094807;28;20071;-73
2023/01/11 07:43:14;;;;;;;36.20;4.00;;;6.90;99.90;;;;;;5095004;28;20040;-73
2023/01/11 07:45:45;;;;;;;34.13;3.95;;;8.20;99.90;;;;;;5059226;28;20376;-73
2023/01/11 07:48:19;;;;;;;33.33;4.10;;;6.90;99.90;;;;;;5077020;28;20048;-72
2023/01/11 07:50:47;;;;;;;33.63;3.90;;;6.90;99.90;;;;;;5075779;28;20650;-73
2023/01/11 07:53:15;;;;;;;46.33;4.18;;;6.90;99.90;;;;;;5090271;28;20044;-73
2023/01/11 07:55:43;;;;;;;32.40;3.97;;;6.90;99.90;;;;;;5096664;28;20062;-72
2023/01/11 07:58:14;;;;;;;26.30;3.50;;;6.80;99.90;;;;;;5095694;28;20063;-76
2023/01/11 08:00:42;;;;;;;40.00;4.45;;;6.70;99.90;;;;;;5063331;28;20063;-76
2023/01/11 08:03:10;;;;;;;26.05;3.33;;;6.80;99.90;;;;;;5096622;28;20052;-74
2023/01/11 08:05:39;;;;;;;35.83;3.83;;;6.80;99.90;;;;;;5113441;28;20062;-76
2023/01/11 08:08:07;;;;;;;35.75;4.30;;;8.10;99.90;;;;;;5114441;28;20059;-78
2023/01/11 08:10:34;;;;;;;31.40;3.83;;;9.00;99.90;;;;;;5078166;28;20476;-77
2023/01/11 08:15:48;;;;;;;28.27;3.20;;;6.90;99.90;;;;;;5096961;28;20055;-76
2023/01/11 08:18:16;;;;;;;31.92;4.00;;;8.70;99.90;;;;;;5095701;28;20054;-77
2023/01/11 08:20:44;;;;;;;39.38;3.53;;;7.90;99.90;;;;;;5096357;28;20051;-77
2023/01/11 08:23:12;;;;;;;27.92;3.75;;;7.90;99.90;;;;;;5114271;28;20044;-77
2023/01/11 08:25:39;;;;;;;31.35;3.80;;;6.80;99.90;;;;;;5097328;28;20055;-77
2023/01/11 08:28:07;;;;;;;23.40;2.58;;;7.90;99.90;;;;;;5118357;28;20047;-78
2023/01/11 08:30:35;;;;;;;26.73;3.03;;;8.90;99.90;;;;;;5117084;28;20047;-76
2023/01/11 08:33:03;;;;;;;;;;;7.50;99.90;;;;;;5100808;28;20043;-77
2023/01/11 08:35:37;;;;;;;26.15;3.17;;;6.80;99.90;;;;;;5091571;28;19934;-73
2023/01/11 08:38:04;;;;;;;20.70;2.80;;;6.80;99.90;;;;;;5097821;28;20052;-74
2023/01/11 08:40:35;;;;;;;23.33;2.40;;;6.80;99.90;;;;;;5068764;28;20052;-78
2023/01/11 08:43:03;;;;;;;26.58;3.50;;;6.80;99.90;;;;;;5099856;28;20044;-77
2023/01/11 08:45:32;;;;;;;24.60;3.25;;;6.80;99.90;;;;;;5099400;28;20048;-77
2023/01/11 08:48:00;;;;;;;22.60;3.00;;;6.80;99.90;;;;;;5100572;28;20464;-77
2023/01/11 08:50:28;;;;;;;31.45;3.50;;;6.90;99.90;;;;;;5117361;28;20451;-77
2023/01/11 08:52:55;;;;;;;28.48;3.72;;;6.80;99.90;;;;;;5100455;28;20043;-76
2023/01/11 08:55:23;;;;;;;24.92;3.30;;;7.00;99.90;;;;;;5118524;28;20055;-78
2023/01/11 08:57:56;;;;;;;31.05;3.42;;;6.90;99.90;;;;;;5100213;28;20050;-77
2023/01/11 09:00:23;;;;;;;32.78;3.08;;;8.10;99.90;;;;;;5100158;28;20388;-77
2023/01/11 09:02:51;;;;;;;24.10;2.90;;;7.00;99.90;;;;;;5100030;28;20043;-77
2023/01/11 09:05:19;;;;;;;30.48;3.22;;;6.90;99.90;;;;;;5117057;28;20047;-77
2023/01/11 09:07:47;;;;;;;30.98;3.55;;;7.90;99.90;;;;;;5118240;28;20444;-77
2023/01/11 09:10:14;;;;;;;23.67;3.47;;;8.00;99.90;;;;;;5100475;28;20056;-77
2023/01/11 09:12:42;;;;;;;32.40;3.50;;;6.90;99.90;;;;;;5117063;28;20040;-77
2023/01/11 09:15:12;;;;;;;33.13;4.00;;;6.90;99.90;;;;;;5117789;28;20039;-78
2023/01/11 09:17:40;;;;;;;35.22;4.40;;;6.90;99.90;;;;;;5116998;28;20491;-73
2023/01/11 09:20:08;;;;;;;26.65;3.33;;;6.90;99.90;;;;;;5118067;28;20043;-74
2023/01/11 09:22:36;;;;;;;37.00;3.55;;;6.90;99.90;;;;;;5117635;28;20376;-73
2023/01/11 09:25:04;;;;;;;33.65;3.72;;;6.80;99.90;;;;;;5116513;28;20047;-73
2023/01/11 09:27:32;;;;;;;28.77;3.97;;;6.90;99.90;;;;;;5117377;28;20403;-73
2023/01/11 09:30:00;;;;;;;31.92;4.20;;;6.90;99.90;;;;;;5117073;28;20380;-73
2023/01/11 09:32:27;;;;;;;33.63;3.55;;;6.90;99.90;;;;;;5098489;28;20047;-74
2023/01/11 09:34:56;;;;;;;30.70;3.60;;;6.90;99.90;;;;;;5099725;28;20055;-73
2023/01/11 09:37:24;;;;;;;30.92;3.40;;;6.90;99.90;;;;;;5081949;28;20039;-73
2023/01/11 09:39:51;;;;;;;33.80;3.53;;;6.90;99.90;;;;;;5117867;28;20055;-74
2023/01/11 09:42:31;;;;;;;35.90;3.75;;;7.10;99.90;;;;;;5117264;28;20062;-73
2023/01/11 09:45:18;;;;;;;30.60;3.42;;;7.00;99.90;;;;;;5097618;28;20058;-73
2023/01/11 09:47:52;;;;;;;33.78;3.75;;;7.00;99.90;;;;;;5099140;28;20065;-73
2023/01/11 09:50:22;;;;;;;27.27;3.30;;;7.10;99.90;;;;;;5117723;28;20070;-73
2023/01/11 09:52:55;;;;;;;30.23;3.40;;;7.40;99.90;;;;;;5098135;28;20333;-73
2023/01/11 09:55:32;;;;;;;26.55;3.40;;;7.20;99.90;;;;;;5099181;28;20040;-73
2023/01/11 09:58:27;;;;;;;24.35;3.85;;;7.20;99.90;;;;;;5098136;28;20051;-73
2023/01/11 10:01:13;;;;;;;28.75;3.58;;;7.20;99.90;;;;;;5038282;28;20062;-73
2023/01/11 10:03:58;;;;;;;33.72;3.70;;;7.30;99.90;;;;;;5117047;28;20059;-73
2023/01/11 10:07:05;;;;;;;25.45;3.80;;;7.40;99.90;;;;;;5116653;28;20055;-73
2023/01/11 10:09:40;;;;;;;25.63;3.20;;;7.40;99.90;;;;;;5117160;28;20047;-73
2023/01/11 10:12:46;;;;;;;26.10;3.45;;;7.50;99.90;;;;;;5097764;28;20043;-73
2023/01/11 10:15:46;;;;;;;33.83;3.13;;;7.50;99.90;;;;;;5098818;28;20043;-73
2023/01/11 10:19:00;;;;;;;22.80;3.22;;;7.60;99.90;;;;;;5115834;28;20043;-73
2023/01/11 10:21:57;;;;;;;27.80;3.25;;;7.60;99.90;;;;;;5116634;28;20468;-73
2023/01/11 10:24:36;;;;;;;24.95;3.40;;;7.70;99.90;;;;;;5097498;28;20047;-73
2023/01/11 10:27:12;;;;;;;24.20;2.97;;;7.80;99.90;;;;;;5116497;28;20403;-73
2023/01/11 10:30:05;;;;;;;24.88;3.35;;;7.90;99.90;;;;;;5116469;28;20043;-73
2023/01/11 10:33:05;;;;;;;30.15;3.50;;;8.20;99.90;;;;;;5097644;28;20044;-73
2023/01/11 10:38:42;;;;;;;17.92;2.67;;;8.10;99.90;;;;;;5115002;28;20035;-73
2023/01/11 10:41:32;;;;;;;25.23;3.45;;;8.20;99.90;;;;;;5116593;28;20054;-73
2023/01/11 10:44:09;;;;;;;20.00;3.03;;;8.30;99.90;;;;;;5115157;28;20040;-73
2023/01/11 10:46:43;;;;;;;22.35;3.10;;;8.20;99.90;;;;;;5098144;28;20507;-73
2023/01/11 10:49:37;;;;;;;27.42;3.13;;;8.30;99.90;;;;;;5097690;28;20052;-73
2023/01/11 10:52:33;;;;;;;23.27;3.17;;;8.30;99.90;;;;;;5097260;28;20044;-73
2023/01/11 10:55:26;;;;;;;23.05;2.88;;;8.30;99.90;;;;;;5115714;28;20035;-73
2023/01/11 10:58:11;;;;;;;22.23;2.85;;;8.30;99.90;;;;;;5114715;28;20043;-73
2023/01/11 11:00:47;;;;;;;24.45;3.10;;;8.30;99.90;;;;;;5115906;28;20047;-73
2023/01/11 11:03:18;;;;;;;20.95;2.92;;;8.40;99.90;;;;;;5081711;28;20051;-73
2023/01/11 11:06:07;;;;;;;22.33;2.95;;;8.40;99.90;;;;;;5114782;28;20051;-73
2023/01/11 11:09:03;;;;;;;23.60;2.65;;;8.40;99.90;;;;;;5115350;28;20054;-73
2023/01/11 11:11:51;;;;;;;17.38;2.65;;;8.40;99.90;;;;;;5114523;28;20035;-73
2023/01/11 11:14:53;;;;;;;25.50;2.90;;;8.40;99.90;;;;;;5115841;28;20345;-74
2023/01/11 11:17:25;;;;;;;18.27;2.85;;;8.40;99.90;;;;;;5114625;28;20340;-73
2023/01/11 11:19:52;;;;;;;21.30;2.45;;;8.50;99.90;;;;;;5097769;28;20390;-73
2023/01/11 11:22:20;;;;;;;19.00;2.55;;;8.50;99.90;;;;;;5080778;28;20037;-73
2023/01/11 11:25:11;;;;;;;25.30;2.80;;;8.60;99.90;;;;;;5114694;28;20046;-73
2023/01/11 11:27:47;;;;;;;14.60;2.63;;;8.60;99.90;;;;;;5115303;28;20047;-73
2023/01/11 11:30:27;;;;;;;16.95;2.20;;;8.60;99.90;;;;;;5115483;28;20372;-73
2023/01/11 11:32:59;;;;;;;15.88;2.55;;;8.70;99.90;;;;;;5115598;28;20467;-73
2023/01/11 11:35:30;;;;;;;16.40;2.53;;;8.80;99.90;;;;;;5115657;28;20348;-73
2023/01/11 11:37:57;;;;;;;16.48;2.35;;;8.80;99.90;;;;;;5080001;28;20052;-73
2023/01/11 11:40:28;;;;;;;21.48;2.83;;;8.90;99.90;;;;;;5097322;28;20048;-73
2023/01/11 11:43:25;;;;;;;15.57;2.83;;;8.90;99.90;;;;;;5114986;28;20054;-73
2023/01/11 11:45:56;;;;;;;19.10;2.90;;;8.90;99.90;;;;;;5096595;28;20047;-73
2023/01/11 11:48:26;;;;;;;16.40;2.42;;;8.90;99.90;;;;;;5080601;28;20048;-73
2023/01/11 11:50:56;;;;;;;11.82;1.98;;;8.90;99.90;;;;;;5114125;28;20048;-73
2023/01/11 11:53:47;;;;;;;17.05;2.42;;;9.00;99.90;;;;;;5115543;28;20044;-73
2023/01/11 11:56:36;;;;;;;20.00;2.65;;;9.00;99.90;;;;;;5097310;28;20048;-73
2023/01/11 11:59:12;;;;;;;19.98;2.53;;;9.10;99.90;;;;;;5096291;28;20039;-73
2023/01/11 12:01:45;;;;;;;15.65;2.38;;;9.20;99.90;;;;;;5119225;28;20379;-73
2023/01/11 12:04:15;;;;;;;19.98;2.00;;;9.30;99.90;;;;;;5118758;28;20044;-73
2023/01/11 12:06:44;;;;;;;20.85;2.22;;;9.30;99.90;;;;;;5119458;28;20059;-73
2023/01/11 12:09:35;;;;;;;18.77;2.42;;;10.40;99.90;;;;;;5118924;28;20047;-73
2023/01/11 12:12:03;;;;;;;15.55;2.17;;;9.40;99.90;;;;;;5117830;28;20040;-73
2023/01/11 12:14:34;;;;;;;12.73;2.10;;;9.50;99.90;;;;;;5118795;28;20040;-73
2023/01/11 12:17:23;;;;;;;11.80;2.17;;;9.50;99.90;;;;;;5118965;28;20066;-73
2023/01/11 12:24:18;;;;;;;20.15;2.60;;;9.60;99.90;;;;;;5099873;28;20035;-73
2023/01/11 12:27:26;;;;;;;14.88;2.38;;;9.70;99.90;;;;;;5101359;28;20048;-76
2023/01/11 12:30:08;;;;;;;16.25;2.15;;;9.70;99.90;;;;;;5064923;28;20056;-72
2023/01/11 12:33:28;;;;;;;15.00;2.53;;;9.70;99.90;;;;;;5117197;28;20114;-76
2023/01/11 12:36:17;;;;;;;20.42;2.25;;;9.70;99.90;;;;;;4999776;28;20054;-76
2023/01/11 12:39:07;;;;;;;14.32;2.17;;;9.70;99.90;;;;;;5117368;28;20054;-77
2023/01/11 12:41:43;;;;;;;19.58;2.30;;;9.70;99.90;;;;;;5118148;28;20047;-76
2023/01/11 12:44:19;;;;;;;13.32;2.00;;;10.80;99.90;;;;;;5117064;28;20062;-77
2023/01/11 12:47:20;;;;;;;17.85;2.47;;;10.90;99.90;;;;;;5100216;28;20372;-78
2023/01/11 12:50:03;;;;;;;14.55;2.30;;;9.80;99.90;;;;;;5118069;28;20040;-77
2023/01/11 12:52:40;;;;;;;16.42;2.40;;;9.90;99.90;;;;;;5082175;28;20051;-76
2023/01/11 12:55:26;;;;;;;17.90;2.35;;;9.90;99.90;;;;;;5117943;28;20039;-79
2023/01/11 12:58:11;;;;;;;16.92;2.30;;;10.00;99.90;;;;;;5099095;28;20479;-78
2023/01/11 13:01:05;;;;;;;17.73;2.45;;;10.10;99.90;;;;;;5117805;28;20051;-78
2023/01/11 13:03:44;;;;;;;14.25;2.28;;;10.20;99.90;;;;;;5117893;28;20479;-76
2023/01/11 13:06:22;;;;;;;19.95;2.80;;;10.30;99.90;;;;;;5117354;28;20467;-78
2023/01/11 13:09:05;;;;;;;16.98;2.40;;;10.40;99.90;;;;;;5099968;28;20055;-77
2023/01/11 13:11:44;;;;;;;18.88;2.40;;;10.70;99.90;;;;;;5116438;28;20051;-77
2023/01/11 13:14:32;;;;;;;16.83;2.72;;;10.60;99.90;;;;;;5117901;28;20039;-77
2023/01/11 13:17:25;;;;;;;16.98;2.60;;;10.60;99.90;;;;;;5117308;28;20055;-77
2023/01/11 13:20:22;;;;;;;19.65;2.63;;;10.60;99.90;;;;;;5117599;28;20352;-78
2023/01/11 13:22:59;;;;;;;23.67;2.58;;;10.60;99.90;;;;;;5080858;28;20047;-78
2023/01/11 13:25:30;;;;;;;27.63;3.20;;;11.10;99.90;;;;;;5098798;28;20463;-78
2023/01/11 13:28:00;;;;;;;20.08;2.85;;;10.60;99.90;;;;;;5082553;28;20054;-78
2023/01/11 13:30:28;;;;;;;24.35;3.20;;;10.80;99.90;;;;;;5116736;28;20039;-77
2023/01/11 13:33:03;;;;;;;20.33;2.92;;;10.60;99.90;;;;;;5099267;28;20475;-76
2023/01/11 13:35:31;;;;;;;18.38;2.78;;;11.10;99.90;;;;;;5099452;28;20044;-76
2023/01/11 13:38:14;;;;;;;26.00;3.88;;;10.70;99.90;;;;;;5082225;28;20039;-77
2023/01/11 13:40:48;;;;;;;23.42;3.90;;;10.70;99.90;;;;;;5110134;28;20453;-77
2023/01/11 13:43:35;;;;;;;23.77;3.28;;;10.80;99.90;;;;;;5109604;28;20044;-78
2023/01/11 13:46:18;;;;;;;15.68;2.50;;;11.10;99.90;;;;;;5094959;28;20044;-77
2023/01/11 13:48:59;;;;;;;26.88;3.47;;;10.80;99.90;;;;;;5111187;28;20052;-77